Time;durP1;ratioP1;P1;durP2;ratioP2;P2;SDS_P1;SDS_P2;PMS_P1;PMS_P2;Temp;Humidity;BMP_temperature;BMP_pressure;BME280_temperature;BME280_humidity;BME280_pressure;Samples;Min_cycle;Max_cycle;Signal;HPM_P1;HPM_P2
2022/05/19 00:01:33;;;;;;;4.65;3.30;;;23.40;56.50;;;;;;5071377;28;20063;-73
2022/05/19 00:04:00;;;;;;;3.58;3.22;;;23.40;56.40;;;;;;5072411;28;20048;-72
2022/05/19 00:06:26;;;;;;;4.47;3.35;;;23.40;56.40;;;;;;5082942;28;20048;-73
2022/05/19 00:08:53;;;;;;;4.28;3.30;;;23.40;56.50;;;;;;5091228;28;20050;-73
2022/05/19 00:11:21;;;;;;;4.13;3.28;;;23.40;56.50;;;;;;5091341;28;20523;-73
2022/05/19 00:13:48;;;;;;;4.07;3.40;;;23.40;56.50;;;;;;5091511;28;20419;-73
2022/05/19 00:16:15;;;;;;;5.82;3.85;;;23.40;56.50;;;;;;5091376;28;20056;-73
2022/05/19 00:18:43;;;;;;;3.75;3.35;;;23.30;56.40;;;;;;5090969;28;20440;-72
2022/05/19 00:21:09;;;;;;;5.82;3.17;;;23.30;56.40;;;;;;5090169;28;20085;-73
2022/05/19 00:23:36;;;;;;;5.45;3.25;;;23.30;56.50;;;;;;5091095;28;20417;-73
2022/05/19 00:26:03;;;;;;;4.30;3.50;;;23.40;56.50;;;;;;5090842;28;20054;-73
2022/05/19 00:28:30;;;;;;;4.82;3.72;;;23.30;56.40;;;;;;5091222;28;20131;-72
2022/05/19 00:30:56;;;;;;;3.78;3.10;;;23.30;56.40;;;;;;5091011;28;20404;-73
2022/05/19 00:33:23;;;;;;;5.68;3.67;;;23.30;56.50;;;;;;5091112;28;20051;-73
2022/05/19 00:35:52;;;;;;;5.40;3.72;;;23.30;56.40;;;;;;5090949;28;20060;-73
2022/05/19 00:38:18;;;;;;;7.10;3.88;;;23.70;57.60;;;;;;5123316;27;20062;-72
2022/05/19 00:40:47;;;;;;;4.05;3.38;;;23.30;56.50;;;;;;5090852;28;20400;-72
2022/05/19 00:43:14;;;;;;;4.68;3.28;;;23.30;56.40;;;;;;5090875;28;20048;-73
2022/05/19 00:45:44;;;;;;;4.95;3.85;;;23.30;56.50;;;;;;5091068;28;20074;-73
2022/05/19 00:48:16;;;;;;;5.70;4.20;;;23.30;56.50;;;;;;5089704;28;20405;-73
2022/05/19 00:50:45;;;;;;;4.32;3.22;;;23.30;56.40;;;;;;5090813;28;20064;-73
2022/05/19 00:53:16;;;;;;;5.32;3.75;;;23.20;56.40;;;;;;5090887;28;20054;-73
2022/05/19 00:55:45;;;;;;;4.35;3.63;;;23.20;56.40;;;;;;5089284;28;20056;-73
2022/05/19 00:58:13;;;;;;;4.50;3.75;;;23.20;57.20;;;;;;5090566;28;20492;-73
2022/05/19 01:00:40;;;;;;;5.88;3.45;;;23.10;56.40;;;;;;5090591;28;20058;-73
2022/05/19 01:03:07;;;;;;;4.55;3.60;;;24.00;59.70;;;;;;5090733;28;20056;-72
2022/05/19 01:05:35;;;;;;;4.63;3.50;;;23.20;56.50;;;;;;5090716;28;20485;-73
2022/05/19 01:08:05;;;;;;;5.63;3.40;;;23.20;56.40;;;;;;5090681;28;20135;-73
2022/05/19 01:10:33;;;;;;;4.47;3.60;;;23.10;56.40;;;;;;5088741;28;20048;-73
2022/05/19 01:13:00;;;;;;;4.38;3.85;;;23.10;56.40;;;;;;5090781;28;20052;-72
2022/05/19 01:15:27;;;;;;;5.13;3.85;;;22.10;59.20;;;;;;5090455;28;20489;-73
2022/05/19 01:17:53;;;;;;;5.18;3.72;;;23.10;56.40;;;;;;5090360;28;20048;-73
2022/05/19 01:20:21;;;;;;;4.60;3.33;;;23.10;56.40;;;;;;5090290;28;20432;-73
2022/05/19 01:22:53;;;;;;;5.20;3.75;;;23.10;56.50;;;;;;5090699;28;20086;-73
2022/05/19 01:25:25;;;;;;;4.90;3.63;;;23.10;57.00;;;;;;5090520;28;20055;-73
2022/05/19 01:27:53;;;;;;;5.05;3.60;;;23.10;56.50;;;;;;5088539;28;20044;-73
2022/05/19 01:30:20;;;;;;;4.75;4.20;;;23.10;56.50;;;;;;5090191;28;20131;-73
2022/05/19 01:32:47;;;;;;;4.55;3.72;;;23.00;56.40;;;;;;5091555;28;20074;-73
2022/05/19 01:35:13;;;;;;;5.35;4.07;;;23.10;56.50;;;;;;5090530;28;20056;-72
2022/05/19 01:37:40;;;;;;;5.32;3.90;;;23.00;56.40;;;;;;5091477;28;20138;-73
2022/05/19 01:40:12;;;;;;;4.88;3.90;;;23.10;56.50;;;;;;5090072;28;20056;-73
2022/05/19 01:42:50;;;;;;;4.80;3.90;;;23.00;56.40;;;;;;5090452;28;20060;-73
2022/05/19 01:45:35;;;;;;;4.85;3.83;;;23.00;56.40;;;;;;5088857;28;20139;-73
2022/05/19 01:48:06;;;;;;;4.57;4.10;;;22.90;57.50;;;;;;5089779;28;20493;-73
2022/05/19 01:50:35;;;;;;;5.30;3.63;;;23.00;56.50;;;;;;5123929;27;20058;-73
2022/05/19 01:53:04;;;;;;;4.22;3.63;;;23.00;56.50;;;;;;5088678;28;20058;-73
2022/05/19 01:55:33;;;;;;;4.88;3.78;;;23.00;56.50;;;;;;5124454;28;20052;-73
2022/05/19 01:58:02;;;;;;;5.15;3.67;;;23.00;56.50;;;;;;5090322;28;20052;-73
2022/05/19 02:00:30;;;;;;;6.13;3.72;;;23.00;56.50;;;;;;5092368;28;20060;-72
2022/05/19 02:02:59;;;;;;;4.57;3.70;;;23.00;59.60;;;;;;5094065;28;20051;-73
2022/05/19 02:05:33;;;;;;;4.90;3.83;;;23.60;59.40;;;;;;5094015;28;20138;-73
2022/05/19 02:08:01;;;;;;;5.68;4.03;;;22.90;55.90;;;;;;5127919;27;20403;-73
2022/05/19 02:10:32;;;;;;;5.75;3.53;;;22.90;56.60;;;;;;5093467;28;20404;-73
2022/05/19 02:13:00;;;;;;;4.07;3.67;;;22.90;56.50;;;;;;5093627;28;20419;-72
2022/05/19 02:15:27;;;;;;;5.20;4.05;;;22.90;56.50;;;;;;5093817;28;20062;-73
2022/05/19 02:17:55;;;;;;;4.60;3.72;;;23.80;59.70;;;;;;5091798;28;20048;-73
2022/05/19 02:20:24;;;;;;;5.95;4.07;;;22.90;56.50;;;;;;5093401;28;20058;-73
2022/05/19 02:22:51;;;;;;;5.57;3.85;;;22.80;56.40;;;;;;5093554;28;20105;-72
2022/05/19 02:25:20;;;;;;;5.15;3.85;;;22.90;56.50;;;;;;5093678;28;20056;-73
2022/05/19 02:27:49;;;;;;;6.07;3.83;;;22.80;56.50;;;;;;5127632;27;20048;-73
2022/05/19 02:30:18;;;;;;;5.97;3.80;;;22.80;56.50;;;;;;5093314;28;20056;-73
2022/05/19 02:32:45;;;;;;;4.45;3.70;;;22.80;56.50;;;;;;5091644;28;20051;-72
2022/05/19 02:35:13;;;;;;;5.68;3.85;;;22.60;59.40;;;;;;5093510;28;20052;-73
2022/05/19 02:37:40;;;;;;;3.85;3.45;;;22.80;56.50;;;;;;5092971;28;20052;-73
2022/05/19 02:40:08;;;;;;;5.43;3.90;;;22.80;56.50;;;;;;5093206;28;20070;-73
2022/05/19 02:42:35;;;;;;;4.65;4.00;;;21.90;58.40;;;;;;5127474;27;20249;-73
2022/05/19 02:45:02;;;;;;;7.70;4.30;;;22.80;56.50;;;;;;5093319;28;20561;-72
2022/05/19 02:47:28;;;;;;;6.38;3.75;;;22.80;56.50;;;;;;5092893;28;20043;-73
2022/05/19 02:49:55;;;;;;;5.20;3.85;;;22.80;56.50;;;;;;5091035;28;20060;-73
2022/05/19 02:52:23;;;;;;;5.85;4.20;;;22.80;56.50;;;;;;5092540;28;20399;-73
2022/05/19 02:54:50;;;;;;;5.15;3.83;;;22.80;56.50;;;;;;5093013;28;20139;-72
2022/05/19 02:57:16;;;;;;;4.43;3.70;;;22.70;56.50;;;;;;5092981;28;20507;-73
2022/05/19 02:59:43;;;;;;;4.35;3.70;;;22.80;59.00;;;;;;5092355;28;20058;-73
2022/05/19 03:02:10;;;;;;;5.97;4.38;;;22.70;56.50;;;;;;5092949;28;20060;-73
2022/05/19 03:04:37;;;;;;;5.80;4.00;;;22.70;56.50;;;;;;5091034;28;20056;-73
2022/05/19 03:07:04;;;;;;;5.70;3.75;;;22.70;56.50;;;;;;5092676;28;20051;-73
2022/05/19 03:09:32;;;;;;;4.68;3.67;;;22.70;56.50;;;;;;5091969;28;20051;-72
2022/05/19 03:11:59;;;;;;;5.65;4.25;;;22.60;56.50;;;;;;5092530;28;20066;-73
2022/05/19 03:14:26;;;;;;;5.57;4.10;;;23.80;60.60;;;;;;5092746;28;20059;-73
2022/05/19 03:16:52;;;;;;;5.43;4.15;;;22.60;56.50;;;;;;5092269;28;20051;-73
2022/05/19 03:19:20;;;;;;;4.93;3.97;;;22.60;56.50;;;;;;5092022;28;20044;-73
2022/05/19 03:21:47;;;;;;;6.25;4.10;;;22.60;56.50;;;;;;5090729;28;20134;-73
2022/05/19 03:24:14;;;;;;;5.25;3.75;;;22.80;60.30;;;;;;5126443;27;20056;-73
2022/05/19 03:26:42;;;;;;;5.18;3.95;;;22.60;56.50;;;;;;5092338;28;20056;-73
2022/05/19 03:29:08;;;;;;;5.45;3.90;;;22.60;56.50;;;;;;5092357;28;20054;-72
2022/05/19 03:31:35;;;;;;;5.75;3.83;;;22.50;59.40;;;;;;5092826;28;20044;-73
2022/05/19 03:34:02;;;;;;;5.25;4.22;;;22.60;56.50;;;;;;5092250;28;20062;-73
2022/05/19 03:36:29;;;;;;;5.65;4.30;;;22.50;56.50;;;;;;5090727;28;20056;-73
2022/05/19 03:38:56;;;;;;;6.15;4.20;;;22.50;56.50;;;;;;5091887;28;20428;-73
2022/05/19 03:41:23;;;;;;;5.40;4.10;;;22.50;56.50;;;;;;5091735;28;20056;-73
2022/05/19 03:43:51;;;;;;;5.18;4.30;;;22.50;56.50;;;;;;5092020;28;20500;-73
2022/05/19 03:46:18;;;;;;;5.53;4.28;;;22.50;56.50;;;;;;5093218;28;20174;-73
2022/05/19 03:48:45;;;;;;;8.15;4.72;;;22.60;59.80;;;;;;5091721;28;20047;-73
2022/05/19 03:51:13;;;;;;;5.47;4.25;;;22.50;56.50;;;;;;5091810;28;20051;-73
2022/05/19 03:53:40;;;;;;;7.07;4.50;;;22.50;56.50;;;;;;5090256;28;20486;-73
2022/05/19 03:56:07;;;;;;;6.35;4.90;;;22.50;60.20;;;;;;5091857;28;20066;-73
2022/05/19 03:58:34;;;;;;;6.30;4.40;;;22.50;56.60;;;;;;5091615;28;20520;-73
2022/05/19 04:01:02;;;;;;;6.25;4.90;;;22.50;56.60;;;;;;5091294;28;20055;-73
2022/05/19 04:03:28;;;;;;;5.03;4.30;;;22.50;56.60;;;;;;5091628;28;20062;-73
2022/05/19 04:05:55;;;;;;;4.47;3.88;;;22.50;56.60;;;;;;5091612;28;20048;-73
2022/05/19 04:08:22;;;;;;;5.78;4.10;;;22.50;56.60;;;;;;5091392;28;20408;-73
2022/05/19 04:10:49;;;;;;;4.97;4.32;;;22.60;60.10;;;;;;5089881;28;20054;-73
2022/05/19 04:13:16;;;;;;;7.00;5.13;;;22.50;56.60;;;;;;5091320;28;20404;-73
2022/05/19 04:15:43;;;;;;;5.40;4.45;;;22.40;56.60;;;;;;5091031;28;20131;-73
2022/05/19 04:18:11;;;;;;;5.43;4.30;;;22.40;57.40;;;;;;5091414;28;20508;-73
2022/05/19 04:20:37;;;;;;;4.72;4.15;;;22.40;57.20;;;;;;5091009;28;20062;-73
2022/05/19 04:23:04;;;;;;;4.50;3.88;;;22.40;56.60;;;;;;5091117;28;20523;-73
2022/05/19 04:25:31;;;;;;;6.40;4.32;;;22.40;56.60;;;;;;5089669;28;20052;-73
2022/05/19 04:27:58;;;;;;;5.43;4.47;;;22.40;56.60;;;;;;5125727;27;20134;-73
2022/05/19 04:30:24;;;;;;;6.20;4.40;;;22.40;56.60;;;;;;5091059;28;20074;-73
2022/05/19 04:32:51;;;;;;;5.35;4.20;;;22.40;56.70;;;;;;5090942;28;20077;-73
2022/05/19 04:35:19;;;;;;;5.30;4.40;;;22.40;56.70;;;;;;5091288;28;20062;-73
2022/05/19 04:37:47;;;;;;;5.47;4.50;;;22.40;56.70;;;;;;5091041;28;20139;-73
2022/05/19 04:40:14;;;;;;;6.00;4.20;;;22.40;56.70;;;;;;5090832;28;20060;-73
2022/05/19 04:42:41;;;;;;;6.47;4.45;;;22.40;56.70;;;;;;5123369;27;20048;-73
2022/05/19 04:45:08;;;;;;;6.80;4.05;;;22.50;60.10;;;;;;5125141;27;20117;-73
2022/05/19 04:47:35;;;;;;;5.00;4.50;;;22.40;56.70;;;;;;5091189;28;20052;-71
2022/05/19 04:50:02;;;;;;;6.55;5.28;;;22.40;56.60;;;;;;5091520;28;20666;-71
2022/05/19 04:52:30;;;;;;;7.93;6.65;;;22.40;56.70;;;;;;5092289;28;20139;-71
2022/05/19 04:54:56;;;;;;;10.95;7.22;;;22.40;56.70;;;;;;5101041;28;20081;-71
2022/05/19 04:57:23;;;;;;;8.93;7.18;;;22.40;56.80;;;;;;5099011;28;20048;-71
2022/05/19 04:59:50;;;;;;;9.48;7.50;;;22.40;56.80;;;;;;5107501;28;20055;-71
2022/05/19 05:02:17;;;;;;;9.18;7.97;;;22.40;56.90;;;;;;5100631;28;20531;-72
2022/05/19 05:04:43;;;;;;;11.10;7.82;;;22.40;56.90;;;;;;5099692;28;20048;-72
2022/05/19 05:07:10;;;;;;;9.13;7.05;;;22.40;56.90;;;;;;5105351;28;20130;-72
2022/05/19 05:09:38;;;;;;;7.25;6.47;;;22.40;57.00;;;;;;5112039;28;20484;-72
2022/05/19 05:12:05;;;;;;;7.45;6.00;;;22.40;57.00;;;;;;5111039;28;20047;-72
2022/05/19 05:14:32;;;;;;;9.05;6.07;;;22.40;56.90;;;;;;5102790;28;20048;-72
2022/05/19 05:16:59;;;;;;;6.28;5.22;;;22.40;57.00;;;;;;5090812;28;20405;-72
2022/05/19 05:19:26;;;;;;;7.88;5.63;;;22.40;56.90;;;;;;5090342;28;20058;-72
2022/05/19 05:21:56;;;;;;;7.38;5.68;;;22.40;56.90;;;;;;5090746;28;20078;-72
2022/05/19 05:24:22;;;;;;;7.32;5.47;;;22.40;56.90;;;;;;5090780;28;20054;-72
2022/05/19 05:26:50;;;;;;;8.05;5.32;;;21.70;59.60;;;;;;5091440;28;20051;-72
2022/05/19 05:29:17;;;;;;;7.78;5.43;;;22.40;56.90;;;;;;5102940;28;20040;-73
2022/05/19 05:31:44;;;;;;;7.55;5.55;;;22.40;56.90;;;;;;5092316;28;20584;-73
2022/05/19 05:34:11;;;;;;;6.80;5.22;;;22.40;57.00;;;;;;5103278;28;20059;-73
2022/05/19 05:36:38;;;;;;;6.47;5.25;;;22.40;57.00;;;;;;5109516;28;20061;-73
2022/05/19 05:39:04;;;;;;;6.30;4.93;;;22.40;57.00;;;;;;5114649;28;20070;-73
2022/05/19 05:41:31;;;;;;;5.57;4.85;;;22.40;57.00;;;;;;5115740;28;20052;-73
2022/05/19 05:43:59;;;;;;;6.47;5.10;;;22.40;57.00;;;;;;5114886;28;20116;-73
2022/05/19 05:46:26;;;;;;;7.10;5.38;;;22.40;57.00;;;;;;5114954;28;20051;-73
2022/05/19 05:48:53;;;;;;;7.88;5.38;;;22.40;57.00;;;;;;5093280;28;20109;-73
2022/05/19 05:51:20;;;;;;;6.07;4.57;;;22.40;57.00;;;;;;5094088;28;20058;-73
2022/05/19 05:53:47;;;;;;;5.55;4.20;;;22.40;56.90;;;;;;5094138;28;20056;-73
2022/05/19 05:56:15;;;;;;;3.70;3.38;;;22.50;56.90;;;;;;5095279;28;20054;-73
2022/05/19 05:58:42;;;;;;;4.43;3.80;;;22.50;56.90;;;;;;5094329;28;20052;-73
2022/05/19 06:01:11;;;;;;;5.13;3.40;;;22.60;56.80;;;;;;5109163;28;20044;-73
2022/05/19 06:03:37;;;;;;;4.18;3.42;;;22.60;56.60;;;;;;5095330;28;20131;-73
2022/05/19 06:06:04;;;;;;;3.80;2.78;;;22.80;56.50;;;;;;5094034;28;20135;-73
2022/05/19 06:08:31;;;;;;;4.32;3.10;;;22.90;56.40;;;;;;5101959;28;20048;-73
2022/05/19 06:10:59;;;;;;;4.95;3.00;;;22.90;56.20;;;;;;5104569;28;20040;-72
2022/05/19 06:13:25;;;;;;;3.72;2.80;;;23.00;56.00;;;;;;5103332;28;20093;-72
2022/05/19 06:15:52;;;;;;;3.55;2.92;;;23.10;59.50;;;;;;5102588;28;20044;-72
2022/05/19 06:18:20;;;;;;;3.60;2.60;;;23.20;56.90;;;;;;5102386;28;20062;-73
2022/05/19 06:20:47;;;;;;;4.30;2.80;;;23.20;55.70;;;;;;5101670;28;20052;-74
2022/05/19 06:23:16;;;;;;;2.88;2.55;;;23.30;55.60;;;;;;5093751;28;20052;-73
2022/05/19 06:25:42;;;;;;;5.35;2.60;;;23.40;58.80;;;;;;5093381;28;20063;-73
2022/05/19 06:28:09;;;;;;;4.38;2.55;;;23.50;56.20;;;;;;5093485;28;20043;-72
2022/05/19 06:30:36;;;;;;;7.10;4.43;;;23.40;55.30;;;;;;5093115;28;20050;-71
2022/05/19 06:33:05;;;;;;;4.55;3.85;;;23.50;55.40;;;;;;5093050;28;20139;-73
2022/05/19 06:35:33;;;;;;;5.28;3.42;;;23.50;56.00;;;;;;5120253;27;20048;-72
2022/05/19 06:38:00;;;;;;;6.35;3.65;;;23.50;55.40;;;;;;5106947;27;20094;-74
2022/05/19 06:40:27;;;;;;;7.90;3.47;;;23.50;59.10;;;;;;5072521;28;20524;-74
2022/05/19 06:42:54;;;;;;;5.93;3.60;;;23.50;55.50;;;;;;5072994;28;20454;-73
2022/05/19 06:45:22;;;;;;;6.20;3.10;;;24.00;58.60;;;;;;5071802;28;20163;-73
2022/05/19 06:47:49;;;;;;;6.40;3.22;;;23.50;55.40;;;;;;5073156;28;20106;-73
2022/05/19 06:50:16;;;;;;;7.03;3.42;;;23.60;55.40;;;;;;5072598;28;20090;-73
2022/05/19 06:52:45;;;;;;;3.90;2.80;;;23.60;55.30;;;;;;5074086;28;20048;-74
2022/05/19 06:55:12;;;;;;;6.10;2.90;;;23.70;55.20;;;;;;5072785;28;20554;-73
2022/05/19 06:57:39;;;;;;;4.90;2.70;;;24.10;58.10;;;;;;5082511;28;20058;-74
2022/05/19 07:00:07;;;;;;;3.72;3.17;;;23.80;55.00;;;;;;5086781;28;20086;-73
2022/05/19 07:02:34;;;;;;;4.22;2.80;;;23.90;55.00;;;;;;5092521;28;20131;-73
2022/05/19 07:05:01;;;;;;;5.13;2.83;;;23.90;54.80;;;;;;5092150;28;20056;-74
2022/05/19 07:07:28;;;;;;;4.10;2.90;;;24.00;58.90;;;;;;5073243;28;20123;-74
2022/05/19 07:09:56;;;;;;;3.78;2.53;;;24.10;54.60;;;;;;5108945;28;20040;-74
2022/05/19 07:12:23;;;;;;;3.63;2.80;;;24.20;54.50;;;;;;5090854;28;20051;-73
2022/05/19 07:14:49;;;;;;;3.92;3.08;;;24.30;54.50;;;;;;5072766;28;20135;-73
2022/05/19 07:17:17;;;;;;;4.65;2.60;;;24.30;54.40;;;;;;5072598;28;20061;-73
2022/05/19 07:22:28;;;;;;;5.35;3.08;;;24.40;54.30;;;;;;5126740;27;20408;-73
2022/05/19 07:24:56;;;;;;;6.70;3.28;;;24.40;54.20;;;;;;5092440;28;20101;-73
2022/05/19 07:27:23;;;;;;;5.03;2.45;;;24.50;54.20;;;;;;5092308;28;20058;-73
2022/05/19 07:29:50;;;;;;;6.03;2.65;;;24.50;54.20;;;;;;5091632;28;20055;-73
2022/05/19 07:32:16;;;;;;;3.22;2.70;;;24.50;54.70;;;;;;5091780;28;20062;-73
2022/05/19 07:34:44;;;;;;;6.97;3.20;;;24.50;54.10;;;;;;5087893;28;20078;-73
2022/05/19 07:37:11;;;;;;;4.35;2.80;;;24.60;57.30;;;;;;5072288;28;20519;-72
2022/05/19 07:39:38;;;;;;;4.80;2.90;;;24.50;54.10;;;;;;5071477;28;20382;-74
2022/05/19 07:42:07;;;;;;;4.05;3.10;;;24.50;54.10;;;;;;5091246;28;20059;-74
2022/05/19 07:44:33;;;;;;;6.88;2.92;;;24.50;54.00;;;;;;5091946;28;20572;-74
2022/05/19 07:47:00;;;;;;;7.32;3.00;;;24.60;54.00;;;;;;5091732;28;20055;-74
2022/05/19 07:49:27;;;;;;;4.57;2.70;;;24.60;54.00;;;;;;5091761;28;20608;-74
2022/05/19 07:51:54;;;;;;;3.40;2.60;;;24.60;53.90;;;;;;5090025;28;20052;-74
2022/05/19 07:54:26;;;;;;;6.90;3.13;;;24.60;53.80;;;;;;5085906;28;20052;-73
2022/05/19 07:56:53;;;;;;;3.78;2.92;;;24.60;53.80;;;;;;5091482;28;20405;-73
2022/05/19 07:59:21;;;;;;;5.75;2.80;;;24.60;53.80;;;;;;5091781;28;20052;-74
2022/05/19 08:01:48;;;;;;;5.65;3.13;;;24.60;53.80;;;;;;5091642;28;20108;-72
2022/05/19 08:04:17;;;;;;;4.38;2.75;;;24.60;53.80;;;;;;5091782;28;20065;-73
2022/05/19 08:06:43;;;;;;;3.95;2.45;;;24.60;54.50;;;;;;5086722;28;20119;-72
2022/05/19 08:11:55;;;;;;;2.93;2.43;;;24.50;53.90;;;;;;5105595;28;20498;-73
2022/05/19 08:17:10;;;;;;;3.35;2.45;;;24.50;54.00;;;;;;5105516;28;20056;-72
2022/05/19 08:19:37;;;;;;;3.67;2.65;;;24.50;54.10;;;;;;5070360;28;20127;-73
2022/05/19 08:22:05;;;;;;;3.75;2.58;;;24.40;54.10;;;;;;5071164;28;20071;-73
2022/05/19 08:24:31;;;;;;;3.90;2.85;;;24.30;56.90;;;;;;5090362;28;20040;-73
2022/05/19 08:26:59;;;;;;;12.27;4.28;;;24.30;54.30;;;;;;5091328;28;20082;-72
2022/05/19 08:29:27;;;;;;;8.60;4.43;;;24.30;54.40;;;;;;5092398;28;20130;-72
2022/05/19 08:31:55;;;;;;;16.85;5.70;;;24.30;54.60;;;;;;5091253;28;20060;-72
2022/05/19 08:34:21;;;;;;;12.30;5.85;;;24.20;54.90;;;;;;5090786;28;20096;-72
2022/05/19 08:36:48;;;;;;;15.15;6.10;;;24.20;55.70;;;;;;5094325;28;20044;-72
2022/05/19 08:39:18;;;;;;;19.45;9.45;;;24.20;55.40;;;;;;5096786;28;20484;-72
2022/05/19 08:41:50;;;;;;;13.20;6.70;;;24.10;56.60;;;;;;5102406;28;20043;-72
2022/05/19 08:44:18;;;;;;;11.48;6.22;;;24.00;56.70;;;;;;5102068;28;20051;-72
2022/05/19 08:46:54;;;;;;;12.98;7.32;;;24.00;56.80;;;;;;5100014;28;20052;-72
2022/05/19 08:49:23;;;;;;;16.92;8.38;;;24.00;56.90;;;;;;5088992;28;20447;-71
2022/05/19 08:52:04;;;;;;;12.73;7.78;;;24.10;59.70;;;;;;5105233;28;20047;-72
2022/05/19 08:54:31;;;;;;;17.05;7.90;;;23.90;57.50;;;;;;5099060;28;20054;-72
2022/05/19 08:56:59;;;;;;;21.20;7.93;;;23.90;57.60;;;;;;5099564;28;20101;-72
2022/05/19 08:59:32;;;;;;;13.07;7.47;;;23.80;57.60;;;;;;5102318;28;20526;-72
2022/05/19 09:02:04;;;;;;;11.07;6.75;;;23.90;57.90;;;;;;5093198;28;20048;-72
2022/05/19 09:04:45;;;;;;;12.00;5.88;;;23.80;57.70;;;;;;5099481;28;20052;-72
2022/05/19 09:10:12;;;;;;;12.20;6.35;;;23.80;57.50;;;;;;5098030;28;20044;-71
2022/05/19 09:12:39;;;;;;;10.32;5.47;;;23.70;60.10;;;;;;5099297;28;20052;-71
2022/05/19 09:15:08;;;;;;;12.95;5.55;;;23.80;57.30;;;;;;5100601;28;20059;-71
2022/05/19 09:17:37;;;;;;;10.85;5.25;;;23.80;57.20;;;;;;5098260;28;20133;-72
2022/05/19 09:20:08;;;;;;;11.20;5.03;;;23.80;57.20;;;;;;5096541;28;20154;-71
2022/05/19 09:22:34;;;;;;;12.23;5.10;;;23.80;57.20;;;;;;5099657;28;20051;-72
2022/05/19 09:25:03;;;;;;;11.88;5.32;;;23.80;57.20;;;;;;5101254;28;20048;-71
2022/05/19 09:27:30;;;;;;;8.23;4.70;;;23.70;57.10;;;;;;5097045;28;20052;-72
2022/05/19 09:29:57;;;;;;;10.00;5.35;;;23.80;57.10;;;;;;5070208;28;20499;-72
2022/05/19 09:32:25;;;;;;;10.35;5.40;;;23.80;57.80;;;;;;5070266;28;20079;-72
2022/05/19 09:35:01;;;;;;;9.93;6.38;;;23.80;57.30;;;;;;5104462;28;20052;-73
2022/05/19 09:37:35;;;;;;;12.38;5.20;;;23.60;57.30;;;;;;5083579;28;20060;-73
2022/05/19 09:40:09;;;;;;;11.85;6.40;;;23.90;60.00;;;;;;5104654;28;20131;-72
2022/05/19 09:42:38;;;;;;;10.73;5.30;;;23.60;60.00;;;;;;5090231;28;20117;-71
2022/05/19 09:45:09;;;;;;;11.18;5.22;;;23.80;57.40;;;;;;5090636;28;20055;-72
2022/05/19 09:47:37;;;;;;;9.05;6.15;;;23.80;57.30;;;;;;5090280;28;20059;-73
2022/05/19 09:50:10;;;;;;;7.95;5.13;;;23.80;58.20;;;;;;5090290;28;20054;-73
2022/05/19 09:52:40;;;;;;;9.68;5.00;;;23.80;57.90;;;;;;5090137;28;20073;-73
2022/05/19 09:55:08;;;;;;;10.55;6.13;;;23.80;57.10;;;;;;5124683;28;20064;-73
2022/05/19 09:57:39;;;;;;;9.18;5.03;;;23.80;57.00;;;;;;5088235;28;20447;-73
2022/05/19 10:00:09;;;;;;;7.82;4.45;;;23.80;56.80;;;;;;5123500;28;20048;-73
2022/05/19 10:02:38;;;;;;;11.27;4.65;;;23.90;60.20;;;;;;5090160;28;20056;-73
2022/05/19 10:05:22;;;;;;;8.07;4.65;;;23.90;56.60;;;;;;5090267;28;20169;-73
2022/05/19 10:07:51;;;;;;;10.43;4.88;;;23.90;56.50;;;;;;5090409;28;20560;-73
2022/05/19 10:10:20;;;;;;;6.82;4.32;;;23.90;56.50;;;;;;5089892;28;20063;-73
2022/05/19 10:12:48;;;;;;;7.40;4.00;;;23.90;56.30;;;;;;5090048;28;20064;-73
2022/05/19 10:15:16;;;;;;;7.72;4.60;;;24.00;56.30;;;;;;5071502;28;20475;-73
2022/05/19 10:17:46;;;;;;;8.80;4.75;;;24.00;56.30;;;;;;5103728;28;20057;-72
2022/05/19 10:20:19;;;;;;;9.77;4.65;;;24.00;56.60;;;;;;5071244;28;20049;-73
2022/05/19 10:22:58;;;;;;;12.10;4.45;;;24.00;56.60;;;;;;5073598;28;20080;-73
2022/05/19 10:25:40;;;;;;;9.98;4.68;;;24.10;56.60;;;;;;5073707;28;20190;-73
2022/05/19 10:31:03;;;;;;;10.18;4.78;;;24.10;56.50;;;;;;5103016;28;20044;-73
2022/05/19 10:33:36;;;;;;;9.40;4.78;;;24.10;56.50;;;;;;5100496;28;20044;-73
2022/05/19 10:36:12;;;;;;;9.38;4.22;;;24.10;56.60;;;;;;5096159;28;20048;-73
2022/05/19 10:38:45;;;;;;;12.05;4.70;;;24.10;56.50;;;;;;5093394;28;20060;-73
2022/05/19 10:41:21;;;;;;;5.68;4.15;;;24.10;56.50;;;;;;5093259;28;20044;-73
2022/05/19 10:44:03;;;;;;;7.30;4.30;;;24.20;56.50;;;;;;5092787;28;20390;-73
2022/05/19 10:46:32;;;;;;;12.07;4.47;;;24.10;57.10;;;;;;5084318;28;20048;-73
2022/05/19 10:49:22;;;;;;;7.32;3.97;;;24.10;56.60;;;;;;5070762;28;20114;-73
2022/05/19 10:51:56;;;;;;;7.65;4.47;;;24.20;56.50;;;;;;5072025;28;20129;-73
2022/05/19 10:54:34;;;;;;;;;;;24.10;56.40;;;;;;5073060;28;20391;-73
2022/05/19 10:57:15;;;;;;;6.28;4.22;;;24.20;56.60;;;;;;5072830;28;19927;-73
2022/05/19 10:59:50;;;;;;;8.93;4.38;;;23.20;59.40;;;;;;5073453;28;20052;-73
2022/05/19 11:02:37;;;;;;;6.63;4.18;;;24.20;56.50;;;;;;5074020;28;20060;-73
2022/05/19 11:05:10;;;;;;;7.05;4.82;;;24.20;56.50;;;;;;5072724;28;20290;-73
2022/05/19 11:07:42;;;;;;;8.68;4.40;;;24.20;56.50;;;;;;5072619;28;20063;-73
2022/05/19 11:10:20;;;;;;;8.55;4.18;;;24.30;56.60;;;;;;5072074;28;20479;-73
2022/05/19 11:12:48;;;;;;;7.63;4.22;;;24.30;56.50;;;;;;5072543;28;20398;-73
2022/05/19 11:15:20;;;;;;;6.82;3.83;;;24.20;56.40;;;;;;5072500;28;20052;-74
2022/05/19 11:17:57;;;;;;;6.00;4.18;;;24.30;56.40;;;;;;5072514;28;20135;-73
2022/05/19 11:20:26;;;;;;;8.18;4.15;;;24.30;56.30;;;;;;5073272;28;20087;-73
2022/05/19 11:22:56;;;;;;;9.38;4.13;;;24.30;56.30;;;;;;5072570;28;20070;-73
2022/05/19 11:28:15;;;;;;;7.75;4.10;;;24.30;56.30;;;;;;5109463;27;20043;-72
2022/05/19 11:30:46;;;;;;;6.13;4.18;;;24.40;56.10;;;;;;5091041;28;20086;-72
2022/05/19 11:33:14;;;;;;;7.55;3.90;;;25.10;59.00;;;;;;5091800;28;20059;-73
2022/05/19 11:35:42;;;;;;;7.78;3.75;;;24.50;59.20;;;;;;5092128;28;20048;-73
2022/05/19 11:38:15;;;;;;;6.13;3.78;;;24.40;56.00;;;;;;5089140;28;20139;-73
2022/05/19 11:40:43;;;;;;;8.50;4.38;;;24.50;56.00;;;;;;5125883;27;20051;-72
2022/05/19 11:43:13;;;;;;;7.22;3.92;;;24.50;55.90;;;;;;5092216;28;20114;-72
2022/05/19 11:45:43;;;;;;;4.88;3.70;;;24.50;55.80;;;;;;5092314;28;20058;-72
2022/05/19 11:56:32;;;;;;;7.13;3.63;;;24.50;55.70;;;;;;5091328;28;20051;-72
2022/05/19 11:58:59;;;;;;;6.45;4.13;;;24.50;55.60;;;;;;5092887;28;20477;-73
2022/05/19 12:01:28;;;;;;;5.32;3.40;;;24.60;55.70;;;;;;5091506;28;20067;-72
2022/05/19 12:03:59;;;;;;;5.72;3.65;;;24.60;55.60;;;;;;5091300;28;20052;-72
2022/05/19 12:06:28;;;;;;;4.85;3.63;;;24.60;55.50;;;;;;5087382;28;20041;-72
2022/05/19 12:08:59;;;;;;;6.85;3.58;;;24.60;55.50;;;;;;5081646;28;20044;-72
2022/05/19 12:11:27;;;;;;;5.38;4.03;;;23.30;57.50;;;;;;5091345;28;20058;-72
2022/05/19 12:14:08;;;;;;;5.60;3.60;;;24.60;55.40;;;;;;5092706;28;20052;-72
2022/05/19 12:16:40;;;;;;;5.15;3.65;;;24.60;55.50;;;;;;5125450;27;20055;-72
2022/05/19 12:19:07;;;;;;;4.95;3.00;;;24.60;55.50;;;;;;5091411;28;20052;-72
2022/05/19 12:21:51;;;;;;;5.03;3.33;;;24.60;55.50;;;;;;5091028;28;20054;-72
2022/05/19 12:24:21;;;;;;;5.72;3.38;;;24.30;58.20;;;;;;5125872;27;20059;-73
2022/05/19 12:26:53;;;;;;;7.55;3.83;;;24.60;55.60;;;;;;5091068;28;20116;-73
2022/05/19 12:29:32;;;;;;;4.15;3.30;;;24.60;55.70;;;;;;5092497;28;20412;-73
2022/05/19 12:32:22;;;;;;;5.40;3.35;;;24.50;55.60;;;;;;5063559;28;20076;-72
2022/05/19 12:34:50;;;;;;;3.90;3.10;;;24.50;55.60;;;;;;5072416;28;20056;-72
2022/05/19 12:37:43;;;;;;;5.88;3.08;;;24.50;55.70;;;;;;5070985;28;20095;-73
2022/05/19 12:40:24;;;;;;;6.13;3.40;;;24.50;55.80;;;;;;5104413;28;20053;-72
2022/05/19 12:42:51;;;;;;;4.93;3.30;;;24.50;55.90;;;;;;5069660;28;20053;-74
2022/05/19 12:45:18;;;;;;;4.28;3.00;;;24.50;55.90;;;;;;5072055;28;20048;-72
2022/05/19 12:47:56;;;;;;;6.68;3.00;;;24.50;56.10;;;;;;5079130;28;20087;-73
2022/05/19 12:50:25;;;;;;;4.85;3.53;;;24.60;56.10;;;;;;5090064;28;20048;-71
2022/05/19 12:53:05;;;;;;;5.82;3.30;;;24.90;59.00;;;;;;5088919;28;20546;-71
2022/05/19 12:55:51;;;;;;;3.72;2.88;;;24.50;56.30;;;;;;5089121;28;20055;-73
2022/05/19 12:58:49;;;;;;;5.57;3.30;;;24.50;56.30;;;;;;5089060;28;20155;-73
2022/05/19 13:01:19;;;;;;;5.95;3.28;;;24.50;56.30;;;;;;5025457;28;20220;-73
2022/05/19 13:03:48;;;;;;;4.68;2.90;;;24.40;56.40;;;;;;5070185;28;20400;-71
2022/05/19 13:06:15;;;;;;;5.63;2.85;;;24.40;58.30;;;;;;5071767;28;20054;-72
2022/05/19 13:08:43;;;;;;;3.58;3.08;;;24.30;56.30;;;;;;5072001;28;20048;-72
2022/05/19 13:11:13;;;;;;;5.00;3.05;;;24.40;56.40;;;;;;5070174;28;20132;-72
2022/05/19 13:13:42;;;;;;;5.88;3.13;;;24.30;56.30;;;;;;5070769;28;20076;-72
2022/05/19 13:16:13;;;;;;;4.20;3.22;;;24.30;56.40;;;;;;5072554;28;20063;-72
2022/05/19 13:18:43;;;;;;;5.57;3.22;;;24.30;56.30;;;;;;5090190;28;20060;-72
2022/05/19 13:21:11;;;;;;;4.40;2.75;;;24.30;56.40;;;;;;5085463;28;20476;-73